OTBD/DOH METAR and TAF weather

Enter ICAO airport designator
Station Type Date Time Source
OTBD METAR 2020/09/27 15:30 UTC NOAA

OTBD 271530Z AUTO 02005KT CAVOK 34/25 Q1006 NOSIG


Station Type Date Time Source
OTBD Decoded METAR 2020/09/27 15:30 UTC NOAA

Doha International Airport, Qatar (OTBD) 25-15N 051-34E 10M
Sep 27, 2020 - 11:30 AM EDT / 2020.09.27 1530 UTC
Wind: from the NNE (020 degrees) at 6 MPH (5 KT):0
Visibility: greater than 7 mile(s):0
Temperature: 93 F (34 C)
Heat index: 106.7 F (41.5 C):1
Dew Point: 77 F (25 C)
Relative Humidity: 59%
Pressure (altimeter): 29.71 in. Hg (1006 hPa)
ob: OTBD 271530Z AUTO 02005KT CAVOK 34/25 Q1006 NOSIG
cycle: 15

Station Type Date Time Source
OTBD TAF 2020/09/27 12:15 UTC NOAA

TAF TAF OTBD 271110Z 2712/2818 10010KT 9000 NSC
BECMG 2715/2717 07005KT
BECMG 2718/2720 VRB03KT
BECMG 2803/2805 27006KT

Example: see airport list